Time;durP1;ratioP1;P1;durP2;ratioP2;P2;SDS_P1;SDS_P2;PMS_P1;PMS_P2;Temp;Humidity;BMP_temperature;BMP_pressure;BME280_temperature;BME280_humidity;BME280_pressure;Samples;Min_cycle;Max_cycle;Signal;HPM_P1;HPM_P2
2021/10/08 00:01:10;;;;;;;;;9.67;9.67;;;;;19.22;49.58;102482.72;5056709;28;46177;-49
2021/10/08 00:03:36;;;;;;;;;7.67;7.67;;;;;19.23;49.70;102472.97;5057693;28;45307;-47
2021/10/08 00:06:01;;;;;;;;;11.67;9.00;;;;;19.23;49.70;102479.16;5057881;28;45323;-49
2021/10/08 00:08:26;;;;;;;;;9.33;8.00;;;;;19.23;49.90;102473.84;5057899;28;45294;-56
2021/10/08 00:10:52;;;;;;;;;9.00;7.33;;;;;19.22;50.00;102469.41;5057623;28;46417;-55
2021/10/08 00:13:17;;;;;;;;;7.33;7.00;;;;;19.23;49.70;102476.50;5057671;28;45233;-49
2021/10/08 00:15:43;;;;;;;;;9.00;9.00;;;;;19.22;49.86;102469.41;5057620;28;45390;-49
2021/10/08 00:18:08;;;;;;;;;7.67;7.67;;;;;19.22;49.97;102474.72;5057815;28;45445;-54
2021/10/08 00:20:33;;;;;;;;;13.67;9.00;;;;;19.23;49.88;102473.84;5057462;28;47011;-50
2021/10/08 00:22:59;;;;;;;;;11.33;11.33;;;;;19.23;49.73;102473.84;5057444;28;45270;-48
2021/10/08 00:25:24;;;;;;;;;12.00;10.00;;;;;19.23;49.71;102473.84;5057728;28;45386;-54
2021/10/08 00:27:50;;;;;;;;;7.67;6.67;;;;;19.23;49.96;102473.84;5057944;28;45228;-50
2021/10/08 00:30:15;;;;;;;;;12.33;10.33;;;;;19.23;49.97;102473.84;5057362;28;46884;-58
2021/10/08 00:32:40;;;;;;;;;7.67;7.67;;;;;19.23;49.87;102479.16;5056981;28;45308;-45
2021/10/08 00:35:06;;;;;;;;;8.33;7.67;;;;;19.24;50.06;102480.06;5057666;28;45432;-50
2021/10/08 00:37:31;;;;;;;;;9.33;8.67;;;;;19.23;49.83;102476.50;5057693;28;45228;-52
2021/10/08 00:39:57;;;;;;;;;9.33;8.67;;;;;19.22;49.89;102480.06;5057137;28;47103;-48
2021/10/08 00:42:26;;;;;;;;;10.00;7.33;;;;;19.24;50.12;102490.72;5057348;28;45370;-49
2021/10/08 00:44:51;;;;;;;;;10.33;9.00;;;;;19.24;49.74;102488.97;5057146;28;45362;-56
2021/10/08 00:47:17;;;;;;;;;8.67;8.67;;;;;19.23;50.03;102487.16;5057607;28;45351;-60
2021/10/08 00:49:42;;;;;;;;;10.33;10.00;;;;;19.23;49.87;102484.50;5057114;28;45396;-56
2021/10/08 00:52:08;;;;;;;;;7.67;7.67;;;;;19.24;49.82;102490.72;5057282;28;45443;-50
2021/10/08 00:54:33;;;;;;;;;10.00;8.33;;;;;19.23;50.01;102492.50;5057175;28;45208;-61
2021/10/08 00:56:58;;;;;;;;;8.33;7.67;;;;;19.24;49.93;102490.72;5057186;28;45449;-49
2021/10/08 00:59:28;;;;;;;;;10.33;9.67;;;;;19.23;49.84;102488.97;5057189;28;47237;-60
2021/10/08 01:01:53;;;;;;;;;12.33;7.00;;;;;19.23;50.03;102488.97;5057004;28;45287;-55
2021/10/08 01:04:21;;;;;;;;;10.00;7.33;;;;;19.23;50.11;102494.28;5057018;28;45422;-51
2021/10/08 01:06:47;;;;;;;;;8.00;8.00;;;;;19.24;49.78;102496.06;5057302;28;45525;-46
2021/10/08 01:09:12;;;;;;;;;10.00;8.00;;;;;19.24;49.87;102488.97;5056570;28;46981;-48
2021/10/08 01:11:38;;;;;;;;;7.00;6.67;;;;;19.23;50.09;102489.84;5056859;28;45267;-47
2021/10/08 01:14:04;;;;;;;;;7.00;7.00;;;;;19.21;49.96;102492.50;5060260;28;45137;-48
2021/10/08 01:16:30;;;;;;;;;8.00;7.33;;;;;19.24;49.78;102493.41;5060628;28;45499;-45
2021/10/08 01:18:56;;;;;;;;;8.00;7.00;;;;;19.23;49.99;102483.63;5060204;28;46555;-46
2021/10/08 01:21:21;;;;;;;;;6.00;5.67;;;;;19.23;50.17;102487.16;5060053;28;45280;-46
2021/10/08 01:23:46;;;;;;;;;8.00;7.00;;;;;19.23;50.14;102489.84;5060402;28;45362;-60
2021/10/08 01:26:12;;;;;;;;;9.67;8.00;;;;;19.24;50.11;102482.72;5060259;28;45232;-50
2021/10/08 01:28:38;;;;;;;;;9.00;9.00;;;;;19.24;50.10;102485.41;5060104;28;45403;-49
2021/10/08 01:31:04;;;;;;;;;7.00;7.00;;;;;19.24;50.00;102480.97;5059970;28;45450;-48
2021/10/08 01:33:29;;;;;;;;;11.33;10.00;;;;;19.23;50.05;102481.84;5059937;28;45358;-46
2021/10/08 01:35:55;;;;;;;;;8.00;6.67;;;;;19.23;50.11;102489.84;5060274;28;45536;-48
2021/10/08 01:38:20;;;;;;;;;11.00;9.00;;;;;19.23;50.02;102481.84;5059946;28;47309;-60
2021/10/08 01:40:46;;;;;;;;;6.67;6.67;;;;;19.23;50.08;102488.97;5059776;28;45261;-46
2021/10/08 01:43:11;;;;;;;;;8.67;6.67;;;;;19.23;49.93;102492.50;5060068;28;45274;-48
2021/10/08 01:45:36;;;;;;;;;11.00;7.00;;;;;19.22;49.87;102485.41;5060121;28;45311;-54
2021/10/08 01:48:02;;;;;;;;;10.00;7.67;;;;;19.23;49.82;102488.97;5059834;28;46115;-48
2021/10/08 01:50:27;;;;;;;;;7.67;7.67;;;;;19.24;49.86;102491.63;5059741;28;45319;-54
2021/10/08 01:52:53;;;;;;;;;7.67;7.33;;;;;19.23;50.03;102492.50;5060015;28;45157;-49
2021/10/08 01:55:19;;;;;;;;;7.67;7.33;;;;;19.23;49.67;102488.97;5060085;28;45165;-49
2021/10/08 01:57:44;;;;;;;;;10.00;8.00;;;;;19.23;49.70;102489.84;5059299;28;46308;-53
2021/10/08 02:00:10;;;;;;;;;9.33;7.33;;;;;19.23;49.73;102489.84;5059763;28;45223;-52
2021/10/08 02:02:35;;;;;;;;;8.33;7.67;;;;;19.23;49.95;102486.28;5059483;28;45192;-48
2021/10/08 02:05:00;;;;;;;;;9.67;7.00;;;;;19.23;49.87;102484.50;5059879;28;45427;-49
2021/10/08 02:07:26;;;;;;;;;7.67;7.67;;;;;19.23;49.64;102489.84;5059566;28;47050;-55
2021/10/08 02:09:51;;;;;;;;;7.67;6.67;;;;;19.23;49.71;102489.84;5059590;28;45226;-49
2021/10/08 02:12:17;;;;;;;;;8.00;8.00;;;;;19.22;49.56;102485.41;5059479;28;45480;-47
2021/10/08 02:14:42;;;;;;;;;8.67;8.67;;;;;19.23;49.71;102478.31;5059791;28;45455;-47
2021/10/08 02:17:07;;;;;;;;;10.00;9.67;;;;;19.23;49.65;102488.97;5059267;28;46784;-50
2021/10/08 02:19:33;;;;;;;;;8.00;8.00;;;;;19.23;49.59;102478.31;5059614;28;45399;-49
2021/10/08 02:21:58;;;;;;;;;8.67;8.33;;;;;19.23;49.87;102484.50;5059303;28;45334;-60
2021/10/08 02:24:24;;;;;;;;;9.33;9.00;;;;;19.23;49.78;102492.50;5058672;28;45513;-58
2021/10/08 02:26:49;;;;;;;;;8.33;7.00;;;;;19.23;49.75;102483.63;5059101;28;46198;-50
2021/10/08 02:29:15;;;;;;;;;8.67;8.67;;;;;19.23;49.89;102483.63;5059159;28;45323;-60
2021/10/08 02:31:40;;;;;;;;;7.00;7.00;;;;;19.23;49.84;102478.31;5059015;28;45505;-43
2021/10/08 02:34:06;;;;;;;;;8.67;8.00;;;;;19.23;49.66;102478.31;5059264;28;45303;-61
2021/10/08 02:36:31;;;;;;;;;7.67;7.33;;;;;19.22;49.65;102482.72;5059087;28;47372;-48
2021/10/08 02:38:57;;;;;;;;;8.67;8.00;;;;;19.21;49.71;102481.81;5058946;28;45360;-53
2021/10/08 02:41:23;;;;;;;;;13.00;9.00;;;;;19.21;49.59;102478.25;5059049;28;45165;-56
2021/10/08 02:43:49;;;;;;;;;7.00;7.00;;;;;19.21;49.63;102483.59;5058986;28;45557;-50
2021/10/08 02:46:15;;;;;;;;;12.67;10.33;;;;;19.21;49.83;102480.94;5058501;28;47067;-47
2021/10/08 02:48:40;;;;;;;;;8.33;8.33;;;;;19.21;49.50;102481.81;5058794;28;45367;-53
2021/10/08 02:51:06;;;;;;;;;7.00;6.67;;;;;19.21;49.76;102480.94;5058859;28;45223;-52
2021/10/08 02:53:32;;;;;;;;;7.00;6.33;;;;;19.21;49.89;102480.94;5059033;28;45326;-47
2021/10/08 02:55:57;;;;;;;;;10.00;7.00;;;;;19.21;49.89;102481.81;5058735;28;46148;-49
2021/10/08 02:58:23;;;;;;;;;9.33;9.33;;;;;19.21;49.81;102475.59;5058541;28;45364;-46
2021/10/08 03:00:49;;;;;;;;;8.33;7.67;;;;;19.22;49.81;102482.72;5058622;28;45421;-60
2021/10/08 03:03:15;;;;;;;;;7.33;7.33;;;;;19.21;49.55;102488.94;5058737;28;45413;-46
2021/10/08 03:05:41;;;;;;;;;8.00;8.00;;;;;19.20;49.73;102487.16;5058343;28;47200;-55
2021/10/08 03:08:07;;;;;;;;;10.00;9.67;;;;;19.20;49.61;102485.38;5058508;28;45352;-49
2021/10/08 03:10:34;;;;;;;;;6.00;6.00;;;;;19.20;49.68;102482.72;5058496;28;45288;-50
2021/10/08 03:12:59;;;;;;;;;6.67;6.67;;;;;19.20;49.53;102484.50;5058786;28;45521;-50
2021/10/08 03:15:26;;;;;;;;;6.67;6.67;;;;;19.21;49.71;102481.81;5058139;28;46363;-51
2021/10/08 03:17:51;;;;;;;;;7.33;7.33;;;;;19.20;49.70;102479.16;5058528;28;45323;-49
2021/10/08 03:20:17;;;;;;;;;7.00;7.00;;;;;19.20;49.67;102480.06;5058352;28;45169;-49
2021/10/08 03:22:42;;;;;;;;;7.00;7.00;;;;;19.20;49.54;102487.16;5058540;28;45174;-47
2021/10/08 03:25:09;;;;;;;;;7.00;5.00;;;;;19.20;49.64;102482.72;5058220;28;46119;-46
2021/10/08 03:27:35;;;;;;;;;9.00;8.00;;;;;19.20;49.47;102484.50;5058140;28;45429;-60
2021/10/08 03:30:01;;;;;;;;;9.00;8.33;;;;;19.21;49.51;102486.25;5058200;28;45299;-60
2021/10/08 03:32:26;;;;;;;;;8.33;7.00;;;;;19.20;49.83;102485.38;5058035;28;45378;-49
2021/10/08 03:34:52;;;;;;;;;7.67;7.67;;;;;19.20;49.50;102488.06;5058006;28;45993;-56
2021/10/08 03:37:21;;;;;;;;;7.00;6.67;;;;;19.20;49.69;102489.81;5058303;28;45219;-50
2021/10/08 03:39:48;;;;;;;;;10.00;8.67;;;;;19.20;49.69;102489.81;5058132;28;45217;-49
2021/10/08 03:42:16;;;;;;;;;10.33;7.00;;;;;19.20;49.46;102485.38;5058186;28;45324;-47
2021/10/08 03:44:43;;;;;;;;;6.00;6.00;;;;;19.20;49.69;102481.81;5057826;28;47101;-49
2021/10/08 03:47:18;;;;;;;;;5.00;5.00;;;;;19.20;49.67;102489.81;5057859;28;45208;-48
2021/10/08 03:49:43;;;;;;;;;9.33;7.00;;;;;19.20;49.74;102487.16;5058052;28;45532;-55
2021/10/08 03:52:09;;;;;;;;;9.33;8.00;;;;;19.19;49.58;102491.59;5058216;28;45466;-48
2021/10/08 03:54:35;;;;;;;;;8.33;8.33;;;;;19.20;49.51;102487.16;5057934;28;46269;-50
2021/10/08 03:57:01;;;;;;;;;12.00;8.00;;;;;19.19;49.65;102482.69;5057715;28;45285;-48
2021/10/08 03:59:26;;;;;;;;;8.67;7.67;;;;;19.20;49.58;102489.81;5057788;28;46250;-55
2021/10/08 04:01:51;;;;;;;;;7.67;7.67;;;;;19.20;49.69;102495.16;5058287;28;45201;-49
2021/10/08 04:04:17;;;;;;;;;6.33;6.00;;;;;19.20;49.51;102492.50;5057230;28;46331;-48
2021/10/08 04:06:42;;;;;;;;;8.00;8.00;;;;;19.19;49.39;102496.91;5057551;28;45232;-51
2021/10/08 04:09:08;;;;;;;;;8.67;6.67;;;;;19.18;49.55;102495.16;5057674;28;45407;-52
2021/10/08 04:11:34;;;;;;;;;7.67;6.67;;;;;19.19;49.66;102494.25;5058024;28;45354;-48
2021/10/08 04:14:00;;;;;;;;;7.00;6.33;;;;;19.19;49.43;102493.34;5057477;28;46827;-48
2021/10/08 04:16:25;;;;;;;;;8.00;8.00;;;;;19.21;49.32;102499.59;5057686;28;45340;-47
2021/10/08 04:18:51;;;;;;;;;9.67;8.00;;;;;19.19;49.37;102499.59;5057957;28;45459;-60
2021/10/08 04:21:16;;;;;;;;;7.00;7.00;;;;;19.20;49.51;102503.16;5057818;28;45441;-61
2021/10/08 04:23:42;;;;;;;;;11.33;8.67;;;;;19.18;49.45;102503.16;5057514;28;45960;-50
2021/10/08 04:26:08;;;;;;;;;8.00;8.00;;;;;19.19;49.49;102499.59;5057542;28;45840;-49
2021/10/08 04:28:34;;;;;;;;;7.67;7.00;;;;;19.19;49.60;102509.34;5057639;28;45310;-45
2021/10/08 04:30:59;;;;;;;;;10.67;7.67;;;;;19.19;49.63;102504.00;5057518;28;45211;-47
2021/10/08 04:33:26;;;;;;;;;9.00;9.00;;;;;19.18;49.37;102497.81;5057029;28;47076;-48
2021/10/08 04:35:59;;;;;;;;;10.00;8.00;;;;;19.19;49.50;102510.25;5057519;28;45321;-47
2021/10/08 04:38:25;;;;;;;;;9.67;8.00;;;;;19.19;49.37;102510.25;5057432;28;45257;-53
2021/10/08 04:40:51;;;;;;;;;10.33;7.33;;;;;19.19;49.30;102496.00;5057601;28;45331;-49
2021/10/08 04:43:16;;;;;;;;;8.00;8.00;;;;;19.19;49.57;102498.69;5057127;28;46237;-54
2021/10/08 04:45:42;;;;;;;;;10.67;8.00;;;;;19.19;49.49;102504.00;5056857;28;45462;-50
2021/10/08 04:48:07;;;;;;;;;9.00;6.67;;;;;19.19;49.51;102498.69;5059080;28;45299;-49
2021/10/08 04:50:33;;;;;;;;;8.67;8.67;;;;;19.19;49.23;102498.69;5061161;28;45444;-57
2021/10/08 04:52:58;;;;;;;;;12.33;9.67;;;;;19.18;49.50;102513.81;5060485;28;46972;-53
2021/10/08 04:55:24;;;;;;;;;10.67;6.67;;;;;19.19;49.44;102504.00;5060660;28;45471;-49
2021/10/08 04:57:50;;;;;;;;;10.33;9.33;;;;;19.18;49.27;102499.56;5060610;28;45326;-55
2021/10/08 05:00:16;;;;;;;;;8.33;8.00;;;;;19.18;49.50;102503.16;5060800;28;45386;-54
2021/10/08 05:02:41;;;;;;;;;9.33;9.33;;;;;19.18;49.26;102507.56;5060552;28;46413;-48
2021/10/08 05:05:07;;;;;;;;;8.33;7.33;;;;;19.18;49.35;102502.25;5060439;28;45383;-60
2021/10/08 05:07:32;;;;;;;;;8.00;8.00;;;;;19.18;49.43;102511.13;5060592;28;45318;-49
2021/10/08 05:09:58;;;;;;;;;9.67;9.67;;;;;19.18;49.27;102499.56;5060721;28;45196;-49
2021/10/08 05:12:25;;;;;;;;;11.67;9.67;;;;;19.17;49.23;102505.78;5060339;28;45270;-53
2021/10/08 05:14:54;;;;;;;;;14.67;10.67;;;;;19.18;49.42;102499.56;5060489;28;45211;-50
2021/10/08 05:17:20;;;;;;;;;11.00;10.33;;;;;19.18;49.39;102503.16;5060476;28;45260;-59
2021/10/08 05:19:46;;;;;;;;;11.33;10.67;;;;;19.18;49.52;102510.25;5060517;28;45378;-52
2021/10/08 05:22:11;;;;;;;;;9.67;9.67;;;;;19.17;49.27;102505.78;5060147;28;46142;-50
2021/10/08 05:24:37;;;;;;;;;10.67;10.33;;;;;19.17;49.48;102511.09;5060159;28;45468;-50
2021/10/08 05:27:02;;;;;;;;;9.00;8.67;;;;;19.17;49.71;102516.44;5059227;28;45389;-50
2021/10/08 05:29:28;;;;;;;;;6.33;5.33;;;;;19.17;50.66;102508.44;5060287;28;45418;-50
2021/10/08 05:31:53;;;;;;;;;5.67;5.67;;;;;19.17;50.94;102509.34;5059426;28;45958;-51
2021/10/08 05:34:19;;;;;;;;;9.67;4.67;;;;;19.17;51.19;102506.66;5059471;28;45363;-50
2021/10/08 05:36:48;;;;;;;;;6.67;5.67;;;;;19.18;51.63;102508.47;5060213;28;45340;-51
2021/10/08 05:39:14;;;;;;;;;8.00;7.67;;;;;19.21;52.62;102515.59;5060027;28;45354;-58
2021/10/08 05:41:40;;;;;;;;;8.00;7.00;;;;;19.22;55.21;102509.38;5059732;28;47306;-55
2021/10/08 05:44:05;;;;;;;;;12.33;7.33;;;;;19.25;57.54;102522.72;5059639;28;45421;-49
2021/10/08 05:46:30;;;;;;;;;17.67;8.33;;;;;19.28;59.46;102513.88;5059552;28;45408;-49
2021/10/08 05:48:56;;;;;;;;;11.67;8.67;;;;;19.30;60.90;102515.69;5060155;28;45421;-47
2021/10/08 05:51:21;;;;;;;;;14.33;11.67;;;;;19.33;60.99;102517.50;5059792;28;45342;-48
2021/10/08 05:53:47;;;;;;;;;13.00;9.33;;;;;19.35;61.54;102517.50;5059667;28;45343;-52
2021/10/08 05:56:12;;;;;;;;;10.00;10.00;;;;;19.37;61.80;102516.66;5059666;28;45329;-46
2021/10/08 05:58:37;;;;;;;;;11.00;8.67;;;;;19.37;62.14;102521.97;5058672;28;45435;-62
2021/10/08 06:01:03;;;;;;;;;10.00;10.00;;;;;19.39;62.38;102519.31;5059218;28;46190;-50
2021/10/08 06:03:28;;;;;;;;;7.33;6.00;;;;;19.40;62.61;102523.75;5059393;28;45181;-49
2021/10/08 06:05:53;;;;;;;;;8.67;8.00;;;;;19.42;62.84;102519.31;5059443;28;45329;-61
2021/10/08 06:08:19;;;;;;;;;9.33;9.33;;;;;19.42;62.84;102524.66;5059950;28;45485;-50
2021/10/08 06:10:44;;;;;;;;;9.00;8.33;;;;;19.42;63.55;102530.91;5059108;28;46544;-55
2021/10/08 06:13:09;;;;;;;;;13.67;10.00;;;;;19.44;64.00;102525.56;5059437;28;45338;-60
2021/10/08 06:15:35;;;;;;;;;10.00;10.00;;;;;19.46;63.82;102539.81;5059616;28;45320;-50
2021/10/08 06:18:01;;;;;;;;;10.00;8.67;;;;;19.47;65.02;102540.72;5059627;28;45227;-49
2021/10/08 06:20:27;;;;;;;;;8.00;8.00;;;;;19.49;66.46;102537.19;5059147;28;47175;-49
2021/10/08 06:22:53;;;;;;;;;13.33;11.00;;;;;19.52;67.46;102534.53;5059320;28;45228;-55
2021/10/08 06:25:19;;;;;;;;;13.00;11.33;;;;;19.56;67.97;102533.66;5059192;28;45414;-49
2021/10/08 06:27:46;;;;;;;;;10.33;10.33;;;;;19.60;66.31;102547.06;5059409;28;45393;-53
2021/10/08 06:30:12;;;;;;;;;12.67;8.00;;;;;19.60;65.26;102541.72;5059286;28;47123;-57
2021/10/08 06:32:38;;;;;;;;;9.00;9.00;;;;;19.60;64.20;102544.38;5057666;28;45617;-50
2021/10/08 06:35:04;;;;;;;;;10.33;9.00;;;;;19.58;62.85;102539.03;5058836;28;45220;-56
2021/10/08 06:37:30;;;;;;;;;8.00;7.67;;;;;19.58;61.62;102552.38;5059278;28;45379;-51
2021/10/08 06:39:55;;;;;;;;;9.33;9.33;;;;;19.56;61.37;102548.81;5058719;28;46128;-52
2021/10/08 06:42:24;;;;;;;;;11.33;9.67;;;;;19.55;60.55;102544.34;5058935;28;45281;-60
2021/10/08 06:44:54;;;;;;;;;10.67;9.33;;;;;19.53;60.35;102547.00;5059146;28;45315;-49
2021/10/08 06:47:19;;;;;;;;;13.00;9.33;;;;;19.51;60.08;102548.75;5058943;28;45337;-61
2021/10/08 06:49:44;;;;;;;;;11.67;10.00;;;;;19.51;59.97;102550.53;5058744;28;46438;-47
2021/10/08 06:52:10;;;;;;;;;14.67;11.33;;;;;19.50;60.06;102557.63;5058628;28;45302;-52
2021/10/08 06:54:35;;;;;;;;;13.67;12.67;;;;;19.50;59.75;102556.75;5058998;28;45550;-46
2021/10/08 06:57:01;;;;;;;;;13.67;12.00;;;;;19.49;59.63;102563.84;5058920;28;45426;-62
2021/10/08 06:59:26;;;;;;;;;12.67;10.67;;;;;19.49;59.24;102552.28;5058736;28;46928;-49
2021/10/08 07:01:53;;;;;;;;;19.67;15.33;;;;;19.48;59.16;102553.19;5058567;28;45236;-45
2021/10/08 07:04:19;;;;;;;;;12.00;11.33;;;;;19.46;59.22;102557.59;5058752;28;45363;-46
2021/10/08 07:06:45;;;;;;;;;14.67;12.67;;;;;19.46;58.91;102563.81;5058565;28;45393;-61
2021/10/08 07:09:10;;;;;;;;;12.67;12.67;;;;;19.46;58.92;102562.94;5058497;28;46297;-54
2021/10/08 07:11:35;;;;;;;;;11.00;9.67;;;;;19.45;58.52;102567.38;5058063;28;45303;-61
2021/10/08 07:14:01;;;;;;;;;15.00;13.67;;;;;19.44;58.47;102574.47;5058620;28;45459;-61
2021/10/08 07:16:26;;;;;;;;;17.00;13.67;;;;;19.43;58.26;102566.47;5058792;28;45441;-48
2021/10/08 07:18:56;;;;;;;;;15.67;15.67;;;;;19.43;58.21;102571.78;5058222;28;46071;-48
2021/10/08 07:21:23;;;;;;;;;16.33;15.00;;;;;19.41;58.19;102571.78;5058181;28;45225;-46
2021/10/08 07:23:48;;;;;;;;;15.00;12.00;;;;;19.42;58.17;102570.00;5058436;28;45280;-60
2021/10/08 07:26:16;;;;;;;;;14.67;14.33;;;;;19.42;57.94;102584.22;5058464;28;45251;-50
2021/10/08 07:28:42;;;;;;;;;14.33;14.33;;;;;19.42;57.74;102578.00;5058157;28;46131;-62
2021/10/08 07:31:09;;;;;;;;;17.33;15.00;;;;;19.42;57.78;102578.00;5057991;28;45366;-60
2021/10/08 07:33:35;;;;;;;;;16.67;14.67;;;;;19.40;57.40;102579.75;5057684;28;45259;-49
2021/10/08 07:36:00;;;;;;;;;15.00;15.00;;;;;19.40;57.19;102580.66;5058345;28;45499;-62
2021/10/08 07:38:26;;;;;;;;;17.00;15.00;;;;;19.40;57.16;102577.09;5058138;28;47034;-53
2021/10/08 07:40:52;;;;;;;;;18.33;17.00;;;;;19.40;56.93;102579.75;5057957;28;45172;-46
2021/10/08 07:43:17;;;;;;;;;16.67;16.33;;;;;19.39;56.88;102580.66;5058091;28;45279;-62
2021/10/08 07:45:42;;;;;;;;;15.00;13.67;;;;;19.39;56.69;102584.22;5058075;28;45434;-49
2021/10/08 07:48:08;;;;;;;;;24.00;15.00;;;;;19.38;56.59;102578.84;5057754;28;45472;-52
2021/10/08 07:50:33;;;;;;;;;17.67;15.67;;;;;19.38;56.54;102579.75;5057531;28;45389;-46
2021/10/08 07:52:59;;;;;;;;;16.33;15.00;;;;;19.37;56.39;102577.97;5058167;28;45400;-50
2021/10/08 07:55:24;;;;;;;;;20.33;19.00;;;;;19.36;56.52;102576.16;5058034;28;45301;-48
2021/10/08 07:57:49;;;;;;;;;16.33;16.33;;;;;19.37;56.28;102583.31;5057677;28;45994;-62
2021/10/08 08:00:15;;;;;;;;;16.33;15.00;;;;;19.36;56.19;102576.16;5057684;28;45389;-62
2021/10/08 08:02:41;;;;;;;;;19.33;16.67;;;;;19.36;56.19;102570.84;5057993;28;45468;-61
2021/10/08 08:05:07;;;;;;;;;16.67;15.67;;;;;19.35;56.14;102571.72;5057895;28;45467;-63
2021/10/08 08:07:33;;;;;;;;;17.33;17.33;;;;;19.34;55.85;102569.94;5057378;28;46391;-49
2021/10/08 08:09:58;;;;;;;;;18.00;17.00;;;;;19.35;55.79;102569.06;5057580;28;45406;-52
2021/10/08 08:12:24;;;;;;;;;14.00;14.00;;;;;19.33;55.58;102566.34;5057889;28;45214;-48
2021/10/08 08:14:49;;;;;;;;;15.67;15.67;;;;;19.34;55.54;102567.25;5057924;28;45440;-48
2021/10/08 08:17:15;;;;;;;;;15.00;12.00;;;;;19.33;55.69;102561.03;5057347;28;47014;-48
2021/10/08 08:19:42;;;;;;;;;17.67;15.00;;;;;19.34;55.58;102567.25;5057495;28;45339;-49
2021/10/08 08:22:08;;;;;;;;;17.67;17.00;;;;;19.33;55.47;102565.50;5058052;28;45197;-48
2021/10/08 08:24:35;;;;;;;;;17.00;17.00;;;;;19.32;55.28;102567.25;5061134;28;45448;-49
2021/10/08 08:27:00;;;;;;;;;22.67;18.00;;;;;19.32;55.02;102564.59;5060753;28;47258;-60
2021/10/08 08:29:25;;;;;;;;;20.33;17.00;;;;;19.32;55.20;102572.59;5060894;28;45264;-48
2021/10/08 08:31:51;;;;;;;;;21.33;19.00;;;;;19.32;54.78;102575.25;5060803;28;45347;-59
2021/10/08 08:34:16;;;;;;;;;18.00;17.00;;;;;19.32;54.97;102580.59;5061036;28;45454;-46
2021/10/08 08:36:42;;;;;;;;;23.33;18.67;;;;;19.32;54.86;102574.34;5060729;28;46983;-51
2021/10/08 08:39:09;;;;;;;;;21.67;19.33;;;;;19.31;54.63;102577.91;5061010;28;45359;-48
2021/10/08 08:41:36;;;;;;;;;19.33;17.00;;;;;19.31;54.55;102575.25;5060729;28;45219;-46
2021/10/08 08:44:03;;;;;;;;;22.33;18.67;;;;;19.31;54.67;102572.59;5060867;28;45540;-49
2021/10/08 08:46:29;;;;;;;;;21.00;18.00;;;;;19.31;54.55;102578.78;5060300;28;46340;-48
2021/10/08 08:48:55;;;;;;;;;22.67;18.67;;;;;19.30;54.29;102574.34;5060557;28;45307;-49
2021/10/08 08:51:25;;;;;;;;;23.33;19.67;;;;;19.30;54.46;102571.69;5060664;28;46257;-50
2021/10/08 08:53:51;;;;;;;;;21.33;18.00;;;;;19.30;54.33;102562.78;5061010;28;45287;-50
2021/10/08 08:56:16;;;;;;;;;18.00;14.33;;;;;19.30;54.28;102562.78;5060457;28;46350;-55
2021/10/08 08:58:41;;;;;;;;;17.33;16.67;;;;;19.30;54.22;102570.78;5060482;28;45309;-46
2021/10/08 09:01:07;;;;;;;;;17.67;17.00;;;;;19.28;54.10;102562.78;5060619;28;45280;-47
2021/10/08 09:03:32;;;;;;;;;22.33;17.00;;;;;19.30;53.94;102565.44;5060758;28;45227;-56
2021/10/08 09:05:58;;;;;;;;;22.67;19.00;;;;;19.28;53.80;102562.78;5060240;28;47071;-49
2021/10/08 09:08:34;;;;;;;;;20.33;17.33;;;;;19.28;53.98;102562.78;5060196;28;45457;-46
2021/10/08 09:11:02;;;;;;;;;21.00;20.00;;;;;19.29;54.01;102561.00;5060287;28;45324;-46
2021/10/08 09:13:29;;;;;;;;;23.00;18.67;;;;;19.28;53.72;102557.44;5060453;28;45316;-52
2021/10/08 09:15:57;;;;;;;;;20.00;18.00;;;;;19.29;53.78;102558.34;5060252;28;47244;-46
2021/10/08 09:18:25;;;;;;;;;21.33;20.00;;;;;19.27;53.68;102563.63;5060208;28;45230;-61
2021/10/08 09:21:03;;;;;;;;;20.33;20.00;;;;;19.28;53.65;102561.88;5060040;28;45459;-56
2021/10/08 09:23:31;;;;;;;;;23.00;21.25;;;;;19.27;53.39;102547.63;5060225;28;45161;-56
2021/10/08 09:25:57;;;;;;;;;22.67;20.33;;;;;19.27;53.58;102554.75;5059833;28;46064;-50
2021/10/08 09:28:22;;;;;;;;;24.00;19.33;;;;;19.26;53.44;102553.88;5059918;28;45316;-50
2021/10/08 09:30:51;;;;;;;;;24.67;18.67;;;;;19.26;53.11;102544.97;5060204;28;45644;-53
2021/10/08 09:33:20;;;;;;;;;19.33;19.00;;;;;19.26;53.39;102553.88;5059586;28;45465;-47
2021/10/08 09:35:49;;;;;;;;;18.67;17.67;;;;;19.26;53.34;102553.88;5059907;28;46174;-49
2021/10/08 09:38:16;;;;;;;;;22.33;17.33;;;;;19.26;53.25;102547.63;5059840;28;45310;-61
2021/10/08 09:40:47;;;;;;;;;21.67;20.00;;;;;19.25;53.00;102552.06;5059879;28;45337;-49
2021/10/08 09:43:23;;;;;;;;;16.67;14.67;;;;;19.26;52.92;102547.63;5060114;28;45389;-56
2021/10/08 09:45:52;;;;;;;;;22.67;18.33;;;;;19.24;53.30;102538.72;5059325;28;46959;-48
2021/10/08 09:48:19;;;;;;;;;19.33;17.67;;;;;19.26;52.86;102544.97;5059605;28;45373;-57
2021/10/08 09:51:05;;;;;;;;;18.67;18.67;;;;;19.26;53.01;102539.63;5059867;28;45165;-49
2021/10/08 09:53:33;;;;;;;;;19.00;16.00;;;;;19.25;52.90;102530.72;5059898;28;45390;-50
2021/10/08 09:55:58;;;;;;;;;15.67;14.00;;;;;19.24;52.88;102526.28;5059484;28;46486;-50
2021/10/08 09:58:23;;;;;;;;;17.00;15.67;;;;;19.24;52.71;102523.63;5059288;28;45385;-46
2021/10/08 10:01:01;;;;;;;;;16.00;15.33;;;;;19.24;52.54;102526.28;5059825;28;45360;-46
2021/10/08 10:03:27;;;;;;;;;21.00;16.67;;;;;19.24;52.56;102534.28;5059593;28;45544;-54
2021/10/08 10:05:55;;;;;;;;;16.67;16.67;;;;;19.23;52.29;102526.28;5059294;28;46176;-57
2021/10/08 10:08:20;;;;;;;;;16.00;15.67;;;;;19.23;52.58;102518.28;5059436;28;45405;-49
2021/10/08 10:10:47;;;;;;;;;16.67;16.67;;;;;19.24;52.40;102517.41;5059441;28;45180;-50
2021/10/08 10:13:13;;;;;;;;;18.33;16.33;;;;;19.23;52.42;102521.81;5059617;28;45271;-46
2021/10/08 10:15:41;;;;;;;;;15.67;15.67;;;;;19.21;52.53;102507.59;5059151;28;46155;-58
2021/10/08 10:18:15;;;;;;;;;19.00;17.00;;;;;19.21;52.28;102505.81;5059312;28;45497;-55
2021/10/08 10:20:48;;;;;;;;;22.00;17.67;;;;;19.22;52.28;102504.06;5059286;28;45464;-55
2021/10/08 10:23:16;;;;;;;;;17.00;15.67;;;;;19.21;52.36;102502.25;5059461;28;45463;-45
2021/10/08 10:25:44;;;;;;;;;17.33;16.33;;;;;19.21;52.46;102499.59;5058881;28;46129;-48
2021/10/08 10:28:10;;;;;;;;;15.00;13.33;;;;;19.21;52.22;102504.91;5059126;28;45361;-47
2021/10/08 10:30:36;;;;;;;;;16.67;14.67;;;;;19.20;52.24;102495.16;5059104;28;45360;-48
2021/10/08 10:33:03;;;;;;;;;20.00;16.33;;;;;19.21;52.44;102496.91;5058916;28;45486;-53
2021/10/08 10:35:40;;;;;;;;;14.67;13.67;;;;;19.20;52.18;102496.06;5058958;28;47131;-50
2021/10/08 10:38:25;;;;;;;;;15.33;13.67;;;;;19.20;52.37;102498.72;5059042;28;45398;-54
2021/10/08 10:41:09;;;;;;;;;18.00;16.67;;;;;19.19;52.27;102502.25;5058934;28;45256;-47
2021/10/08 10:43:42;;;;;;;;;20.00;15.67;;;;;19.19;52.39;102494.25;5059053;28;45302;-48
2021/10/08 10:51:55;;;;;;;;;13.00;13.00;;;;;19.19;52.14;102493.34;5058962;28;45279;-52
2021/10/08 10:54:41;;;;;;;;;15.67;12.33;;;;;19.19;51.98;102494.25;5059010;28;45227;-59
2021/10/08 10:57:33;;;;;;;;;12.33;12.33;;;;;19.18;52.03;102495.16;5058438;28;46191;-59
2021/10/08 11:00:13;;;;;;;;;14.00;12.00;;;;;19.18;51.98;102491.56;5058398;28;45406;-45
2021/10/08 11:02:40;;;;;;;;;14.00;12.00;;;;;19.18;52.03;102494.25;5058641;28;45413;-57
2021/10/08 11:05:20;;;;;;;;;15.00;12.00;;;;;19.16;51.94;102488.88;5058724;28;45326;-56
2021/10/08 11:08:09;;;;;;;;;12.33;12.00;;;;;19.17;51.79;102490.69;5058296;28;46275;-57
2021/10/08 11:10:44;;;;;;;;;10.67;10.67;;;;;19.16;51.76;102488.00;5058217;28;45361;-52
2021/10/08 11:13:33;;;;;;;;;17.33;14.33;;;;;19.16;51.62;102482.69;5058764;28;45472;-62
2021/10/08 11:16:21;;;;;;;;;13.67;11.67;;;;;19.16;51.89;102480.00;5058808;28;45231;-48
2021/10/08 11:18:48;;;;;;;;;13.67;13.00;;;;;19.16;51.62;102483.53;5058150;28;46571;-46
2021/10/08 11:21:34;;;;;;;;;12.33;12.33;;;;;19.16;51.67;102482.69;5058245;28;45291;-57